createdAt,value
2019-05-19T00:01:23.126Z,36.63
2019-05-19T00:03:52.453Z,36.40
2019-05-19T00:06:22.087Z,39.95
2019-05-19T00:08:52.742Z,41.85
2019-05-19T00:11:22.068Z,43.87
2019-05-19T00:13:53.023Z,49.75
2019-05-19T00:16:22.438Z,49.38
2019-05-19T00:18:52.070Z,53.10
2019-05-19T00:21:21.396Z,55.80
2019-05-19T00:23:50.735Z,53.45
2019-05-19T00:26:20.307Z,59.23
2019-05-19T00:28:49.644Z,49.15
2019-05-19T00:31:19.950Z,53.50
2019-05-19T00:33:49.592Z,51.42
2019-05-19T00:36:19.692Z,55.25
2019-05-19T00:38:58.926Z,52.65
2019-05-19T00:41:28.594Z,52.90
2019-05-19T00:44:00.789Z,55.03
2019-05-19T00:46:42.186Z,51.58
2019-05-19T00:49:17.064Z,51.95
2019-05-19T00:51:46.580Z,51.23
2019-05-19T00:54:15.956Z,50.08
2019-05-19T00:56:45.631Z,55.20
2019-05-19T00:59:15.491Z,49.38
2019-05-19T01:01:46.213Z,48.95
2019-05-19T01:04:15.577Z,49.93
2019-05-19T01:07:36.396Z,49.77
2019-05-19T01:15:38.754Z,54.08
2019-05-19T01:18:20.890Z,58.65
2019-05-19T01:20:55.989Z,60.05
2019-05-19T01:23:34.979Z,62.27
2019-05-19T01:26:19.731Z,61.68
2019-05-19T01:29:06.675Z,66.35
2019-05-19T01:31:47.471Z,67.65
2019-05-19T01:34:23.457Z,74.47
2019-05-19T01:37:03.995Z,71.53
2019-05-19T01:39:40.967Z,70.97
2019-05-19T01:42:32.310Z,62.45
2019-05-19T01:45:05.223Z,69.05
2019-05-19T01:47:47.634Z,73.12
2019-05-19T01:50:22.182Z,73.02
2019-05-19T01:52:52.128Z,72.35
2019-05-19T01:55:25.086Z,76.05
2019-05-19T01:57:57.473Z,71.15
2019-05-19T02:00:40.280Z,62.60
2019-05-19T02:06:20.054Z,67.58
2019-05-19T02:22:20.499Z,72.05
2019-05-19T02:25:06.585Z,78.30
2019-05-19T02:28:23.106Z,76.57
2019-05-19T02:30:28.177Z,79.85
2019-05-19T02:37:09.319Z,84.75
2019-05-19T02:40:02.028Z,82.65
2019-05-19T02:43:05.676Z,82.10
2019-05-19T02:45:59.668Z,86.95
2019-05-19T02:51:54.320Z,83.27
2019-05-19T02:54:28.039Z,94.58
2019-05-19T02:56:58.370Z,98.07
2019-05-19T02:59:29.262Z,111.15
2019-05-19T03:02:03.889Z,106.45
2019-05-19T03:04:35.450Z,113.08
2019-05-19T03:10:24.112Z,113.97
2019-05-19T03:13:06.985Z,113.80
2019-05-19T03:15:45.302Z,111.37
2019-05-19T03:18:18.006Z,111.47
2019-05-19T03:21:08.076Z,103.22
2019-05-19T03:23:23.857Z,104.27
2019-05-19T03:25:53.761Z,114.97
2019-05-19T03:28:24.831Z,108.47
2019-05-19T03:31:18.538Z,101.07
2019-05-19T03:34:04.501Z,97.82
2019-05-19T03:36:54.398Z,105.58
2019-05-19T03:39:18.327Z,115.75
2019-05-19T03:41:50.941Z,112.88
2019-05-19T03:44:20.872Z,118.97
2019-05-19T03:46:50.992Z,126.55
2019-05-19T03:49:20.723Z,126.75
2019-05-19T03:51:50.588Z,131.82
2019-05-19T03:54:20.971Z,130.52
2019-05-19T03:56:50.822Z,131.10
2019-05-19T03:59:20.870Z,127.00
2019-05-19T04:01:50.824Z,127.32
2019-05-19T04:04:24.218Z,117.75
2019-05-19T04:06:54.685Z,110.05
2019-05-19T04:09:26.198Z,115.30
2019-05-19T04:11:56.051Z,106.55
2019-05-19T04:14:32.072Z,85.30
2019-05-19T04:17:18.288Z,93.25
2019-05-19T04:19:53.403Z,85.67
2019-05-19T04:25:25.509Z,83.62
2019-05-19T04:28:14.656Z,85.45
2019-05-19T04:30:56.472Z,84.10
2019-05-19T04:33:39.531Z,80.03
2019-05-19T04:36:16.543Z,76.97
2019-05-19T04:38:46.475Z,74.53
2019-05-19T04:41:20.391Z,77.27
2019-05-19T04:43:55.339Z,75.70
2019-05-19T04:46:24.987Z,77.17
2019-05-19T04:48:58.517Z,68.90
2019-05-19T04:51:28.875Z,63.98
2019-05-19T04:54:00.350Z,56.58
2019-05-19T04:56:30.190Z,61.88
2019-05-19T04:59:00.020Z,56.95
2019-05-19T05:01:29.490Z,59.23
2019-05-19T05:03:59.876Z,60.98
2019-05-19T05:06:29.585Z,58.85
2019-05-19T05:08:59.276Z,57.62
2019-05-19T05:11:28.754Z,55.20
2019-05-19T05:13:58.591Z,51.55
2019-05-19T05:16:28.327Z,53.98
2019-05-19T05:18:58.228Z,53.92
2019-05-19T05:21:27.706Z,50.63
2019-05-19T05:23:57.383Z,56.48
2019-05-19T05:26:26.849Z,52.35
2019-05-19T05:28:56.256Z,51.65
2019-05-19T05:31:25.951Z,54.18
2019-05-19T05:33:56.882Z,53.23
2019-05-19T05:36:27.806Z,54.35
2019-05-19T05:38:57.744Z,51.42
2019-05-19T05:41:27.140Z,57.80
2019-05-19T05:43:56.762Z,57.48
2019-05-19T05:46:26.309Z,59.83
2019-05-19T05:48:55.762Z,56.23
2019-05-19T05:51:27.162Z,57.95
2019-05-19T05:53:57.364Z,59.18
2019-05-19T05:56:27.864Z,55.78
2019-05-19T05:58:58.137Z,56.95
2019-05-19T06:01:33.757Z,61.98
2019-05-19T06:04:09.721Z,60.60
2019-05-19T06:06:41.579Z,59.95
2019-05-19T06:09:17.303Z,63.80
2019-05-19T06:11:54.748Z,65.92
2019-05-19T06:14:32.433Z,67.67
2019-05-19T06:17:02.158Z,71.42
2019-05-19T06:19:31.538Z,72.27
2019-05-19T06:22:06.444Z,73.05
2019-05-19T06:24:36.376Z,76.70
2019-05-19T06:27:08.052Z,74.90
2019-05-19T06:29:48.200Z,73.02
2019-05-19T06:32:22.602Z,69.70
2019-05-19T06:34:52.052Z,79.67
2019-05-19T06:40:11.303Z,72.15
2019-05-19T06:42:40.788Z,73.07
2019-05-19T06:45:10.684Z,78.10
2019-05-19T06:47:40.017Z,77.25
2019-05-19T06:50:10.966Z,73.20
2019-05-19T06:52:40.348Z,80.22
2019-05-19T06:55:10.845Z,75.00
2019-05-19T06:57:41.124Z,79.40
2019-05-19T07:00:12.024Z,79.03
2019-05-19T07:02:41.684Z,85.35
2019-05-19T07:05:11.206Z,80.53
2019-05-19T07:07:41.217Z,72.05
2019-05-19T07:10:10.782Z,77.65
2019-05-19T07:12:40.183Z,80.28
2019-05-19T07:15:10.329Z,77.97
2019-05-19T07:17:39.682Z,76.77
2019-05-19T07:20:09.528Z,77.47
2019-05-19T07:22:39.101Z,72.95
2019-05-19T07:25:08.878Z,77.17
2019-05-19T07:27:38.831Z,72.08
2019-05-19T07:30:09.203Z,78.70
2019-05-19T07:32:39.840Z,78.95
2019-05-19T07:35:09.658Z,81.30
2019-05-19T07:37:39.005Z,75.20
2019-05-19T07:40:09.631Z,80.05
2019-05-19T07:42:39.331Z,75.12
2019-05-19T07:45:10.772Z,78.95
2019-05-19T07:47:40.505Z,74.87
2019-05-19T07:50:09.916Z,74.22
2019-05-19T07:52:39.258Z,76.67
2019-05-19T07:55:09.098Z,73.57
2019-05-19T07:57:38.425Z,74.32
2019-05-19T08:00:09.150Z,69.45
2019-05-19T08:02:38.757Z,72.50
2019-05-19T08:05:08.378Z,69.10
2019-05-19T08:07:38.065Z,64.67
2019-05-19T08:10:07.838Z,62.38
2019-05-19T08:12:37.210Z,57.60
2019-05-19T08:15:08.441Z,59.67
2019-05-19T08:17:38.069Z,62.30
2019-05-19T08:20:07.851Z,59.23
2019-05-19T08:22:37.418Z,58.33
2019-05-19T08:25:08.466Z,52.98
2019-05-19T08:27:38.136Z,53.55
2019-05-19T08:30:09.032Z,53.73
2019-05-19T08:32:38.725Z,55.73
2019-05-19T08:35:08.403Z,54.73
2019-05-19T08:37:38.005Z,49.50
2019-05-19T08:40:08.068Z,45.40
2019-05-19T08:42:37.411Z,48.50
2019-05-19T08:45:08.807Z,46.53
2019-05-19T08:47:38.256Z,41.65
2019-05-19T08:50:07.928Z,45.58
2019-05-19T08:52:37.327Z,45.70
2019-05-19T08:55:07.116Z,48.15
2019-05-19T08:57:36.835Z,46.53
2019-05-19T09:00:07.021Z,45.25
2019-05-19T09:02:36.429Z,43.87
2019-05-19T09:05:07.240Z,42.58
2019-05-19T09:07:36.641Z,43.60
2019-05-19T09:10:08.006Z,47.40
2019-05-19T09:12:38.138Z,46.48
2019-05-19T09:15:08.762Z,40.80
2019-05-19T09:17:38.100Z,47.50
2019-05-19T09:20:07.870Z,41.83
2019-05-19T09:22:37.208Z,35.35
2019-05-19T09:25:08.626Z,38.92
2019-05-19T09:27:38.259Z,38.45
2019-05-19T09:30:14.140Z,44.03
2019-05-19T09:32:43.803Z,36.53
2019-05-19T09:35:13.831Z,39.45
2019-05-19T09:37:43.462Z,35.63
2019-05-19T09:40:13.264Z,35.00
2019-05-19T09:42:42.907Z,37.38
2019-05-19T09:45:12.938Z,32.80
2019-05-19T09:47:43.010Z,27.50
2019-05-19T09:50:14.335Z,26.93
2019-05-19T09:52:43.695Z,29.72
2019-05-19T09:55:16.114Z,39.70
2019-05-19T09:57:45.451Z,36.88
2019-05-19T10:00:15.420Z,34.75
2019-05-19T10:02:45.041Z,35.38
2019-05-19T10:05:14.865Z,30.55
2019-05-19T10:07:44.194Z,31.65
2019-05-19T10:10:16.863Z,29.15
2019-05-19T10:12:46.271Z,31.00
2019-05-19T10:15:16.147Z,31.10
2019-05-19T10:17:45.848Z,34.38
2019-05-19T10:20:15.792Z,35.65
2019-05-19T10:22:45.368Z,28.95
2019-05-19T10:25:23.211Z,33.95
2019-05-19T10:27:46.441Z,31.20
2019-05-19T10:30:16.282Z,34.80
2019-05-19T10:32:45.859Z,27.98
2019-05-19T10:35:15.719Z,29.18
2019-05-19T10:37:45.329Z,27.07
2019-05-19T10:40:15.123Z,30.37
2019-05-19T10:42:44.909Z,29.27
2019-05-19T10:45:14.832Z,29.77
2019-05-19T10:47:44.266Z,27.45
2019-05-19T10:50:14.063Z,25.65
2019-05-19T10:52:43.661Z,24.85
2019-05-19T10:55:13.387Z,25.17
2019-05-19T10:57:42.984Z,22.15
2019-05-19T11:00:12.804Z,23.20
2019-05-19T11:02:42.159Z,18.90
2019-05-19T11:05:11.925Z,15.20
2019-05-19T11:07:41.595Z,14.58
2019-05-19T11:10:11.406Z,7.15
2019-05-19T11:12:41.719Z,10.03
2019-05-19T11:15:11.639Z,9.58
2019-05-19T11:17:41.016Z,7.37
2019-05-19T11:20:10.484Z,7.47
2019-05-19T11:22:40.199Z,7.62
2019-05-19T11:25:12.128Z,7.75
2019-05-19T11:27:51.169Z,11.53
2019-05-19T11:30:20.917Z,7.33
2019-05-19T11:32:50.785Z,9.10
2019-05-19T11:35:20.797Z,7.45
2019-05-19T11:37:51.692Z,6.80
2019-05-19T11:40:30.528Z,7.95
2019-05-19T11:42:59.873Z,13.15
2019-05-19T11:45:29.383Z,9.73
2019-05-19T11:47:59.318Z,10.38
2019-05-19T11:50:29.021Z,7.55
2019-05-19T11:52:58.347Z,7.33
2019-05-19T11:55:28.074Z,9.68
2019-05-19T11:57:58.613Z,10.13
2019-05-19T12:00:33.938Z,8.43
2019-05-19T12:03:05.095Z,8.23
2019-05-19T12:05:34.674Z,8.95
2019-05-19T12:08:06.390Z,8.95
2019-05-19T12:10:35.999Z,9.83
2019-05-19T12:13:05.667Z,8.38
2019-05-19T12:15:35.141Z,5.83
2019-05-19T12:18:11.363Z,7.45
2019-05-19T12:20:43.453Z,6.35
2019-05-19T12:23:20.652Z,6.65
2019-05-19T12:25:50.559Z,5.05
2019-05-19T12:28:20.011Z,4.65
2019-05-19T12:30:59.183Z,6.62
2019-05-19T12:33:52.462Z,5.17
2019-05-19T12:36:35.703Z,5.37
2019-05-19T12:39:08.088Z,5.90
2019-05-19T12:50:47.714Z,7.03
2019-05-19T12:53:17.125Z,7.58
2019-05-19T12:55:48.266Z,7.05
2019-05-19T12:58:17.950Z,5.72
2019-05-19T13:00:47.627Z,6.53
2019-05-19T13:03:19.397Z,5.08
2019-05-19T13:05:49.106Z,4.90
2019-05-19T13:08:44.211Z,5.85
2019-05-19T13:11:17.548Z,6.33
2019-05-19T13:13:47.061Z,5.60
2019-05-19T13:16:17.943Z,5.67
2019-05-19T13:18:49.201Z,4.85
2019-05-19T13:21:18.832Z,4.58
2019-05-19T13:23:48.551Z,4.20
2019-05-19T13:26:18.757Z,3.52
2019-05-19T13:28:48.486Z,2.60
2019-05-19T13:31:17.868Z,3.12
2019-05-19T13:33:47.180Z,3.27
2019-05-19T13:36:16.819Z,3.80
2019-05-19T13:38:46.143Z,3.62
2019-05-19T13:41:15.736Z,3.47
2019-05-19T13:43:45.152Z,3.12
2019-05-19T13:46:14.498Z,3.90
2019-05-19T13:48:44.232Z,3.30
2019-05-19T13:51:13.536Z,3.90
2019-05-19T13:53:43.258Z,3.17
2019-05-19T13:56:12.956Z,4.28
2019-05-19T13:58:42.360Z,4.12
2019-05-19T14:01:26.257Z,4.37
2019-05-19T14:03:43.146Z,4.95
2019-05-19T14:06:12.471Z,4.70
2019-05-19T14:08:42.075Z,4.78
2019-05-19T14:11:11.664Z,5.47
2019-05-19T14:13:41.299Z,5.62
2019-05-19T14:16:10.912Z,6.17
2019-05-19T14:18:40.504Z,5.53
2019-05-19T14:21:09.865Z,7.47
2019-05-19T14:23:39.260Z,6.58
2019-05-19T14:26:10.048Z,5.67
2019-05-19T14:28:39.647Z,5.17
2019-05-19T14:31:09.329Z,5.12
2019-05-19T14:33:38.645Z,5.60
2019-05-19T14:36:07.992Z,5.20
2019-05-19T14:38:39.019Z,6.03
2019-05-19T14:41:08.672Z,5.40
2019-05-19T14:43:38.179Z,5.35
2019-05-19T14:46:07.511Z,6.03
2019-05-19T14:48:36.822Z,6.20
2019-05-19T14:51:06.412Z,7.45
2019-05-19T14:53:36.078Z,7.58
2019-05-19T14:56:05.674Z,7.25
2019-05-19T14:58:35.243Z,6.75
2019-05-19T15:01:05.115Z,6.33
2019-05-19T15:03:34.694Z,7.03
2019-05-19T15:06:04.151Z,6.53
2019-05-19T15:08:33.531Z,3.85
2019-05-19T15:11:03.111Z,4.50
2019-05-19T15:13:32.793Z,2.25
2019-05-19T15:16:02.534Z,1.92
2019-05-19T15:18:32.836Z,1.72
2019-05-19T15:21:02.454Z,0.90
2019-05-19T15:23:32.110Z,1.57
2019-05-19T15:26:01.832Z,3.85
2019-05-19T15:28:31.185Z,0.85
2019-05-19T15:31:00.844Z,1.02
2019-05-19T15:33:37.665Z,1.32
2019-05-19T15:36:01.503Z,2.50
2019-05-19T15:38:31.189Z,1.20
2019-05-19T15:41:00.622Z,3.52
2019-05-19T15:43:30.261Z,1.75
2019-05-19T15:45:59.915Z,1.40
2019-05-19T15:48:29.518Z,2.55
2019-05-19T15:50:59.145Z,1.45
2019-05-19T15:53:28.471Z,1.52
2019-05-19T15:55:57.809Z,3.22
2019-05-19T15:58:27.127Z,1.42
2019-05-19T16:00:56.805Z,1.00
2019-05-19T16:03:26.462Z,1.30
2019-05-19T16:05:56.076Z,1.52
2019-05-19T16:08:25.563Z,3.00
2019-05-19T16:10:55.200Z,1.40
2019-05-19T16:13:24.796Z,1.62
2019-05-19T16:15:54.433Z,1.55
2019-05-19T16:18:24.058Z,1.60
2019-05-19T16:20:53.371Z,2.50
2019-05-19T16:23:23.784Z,1.95
2019-05-19T16:25:53.083Z,2.08
2019-05-19T16:28:30.229Z,3.85
2019-05-19T16:30:53.731Z,1.90
2019-05-19T16:33:23.300Z,3.17
2019-05-19T16:35:52.706Z,1.82
2019-05-19T16:38:22.148Z,3.58
2019-05-19T16:40:51.549Z,2.98
2019-05-19T16:43:21.289Z,2.67
2019-05-19T16:45:50.868Z,4.80
2019-05-19T16:48:23.281Z,5.70
2019-05-19T16:50:51.842Z,9.00
2019-05-19T16:53:21.261Z,3.58
2019-05-19T16:55:50.939Z,3.85
2019-05-19T16:58:21.804Z,3.72
2019-05-19T17:00:52.876Z,5.50
2019-05-19T17:03:22.564Z,7.50
2019-05-19T17:05:52.195Z,6.47
2019-05-19T17:08:23.255Z,7.65
2019-05-19T17:10:52.594Z,6.17
2019-05-19T17:13:22.328Z,7.28
2019-05-19T17:15:52.034Z,7.50
2019-05-19T17:18:21.679Z,7.70
2019-05-19T17:20:51.362Z,6.62
2019-05-19T17:23:20.713Z,11.12
2019-05-19T17:25:50.046Z,8.90
2019-05-19T17:28:19.491Z,12.63
2019-05-19T17:30:49.153Z,12.03
2019-05-19T17:33:18.738Z,11.15
2019-05-19T17:35:48.332Z,12.10
2019-05-19T17:38:17.734Z,11.70
2019-05-19T17:40:47.146Z,12.80
2019-05-19T17:43:16.790Z,12.40
2019-05-19T17:45:46.914Z,10.78
2019-05-19T17:48:26.175Z,10.35
2019-05-19T17:50:48.825Z,10.00
2019-05-19T17:53:18.281Z,10.90
2019-05-19T17:55:49.887Z,12.00
2019-05-19T17:58:19.740Z,9.93
2019-05-19T18:00:51.015Z,13.35
2019-05-19T18:03:20.538Z,9.83
2019-05-19T18:05:50.213Z,10.50
2019-05-19T18:08:19.528Z,9.45
2019-05-19T18:10:49.180Z,11.93
2019-05-19T18:13:18.828Z,10.78
2019-05-19T18:15:48.681Z,13.13
2019-05-19T18:18:18.989Z,14.93
2019-05-19T18:20:48.427Z,14.90
2019-05-19T18:23:18.181Z,15.78
2019-05-19T18:28:53.146Z,22.65
2019-05-19T18:31:27.245Z,20.43
2019-05-19T18:34:02.691Z,24.18
2019-05-19T18:36:34.500Z,23.95
2019-05-19T18:39:12.489Z,26.15
2019-05-19T18:41:47.464Z,26.75
2019-05-19T18:44:17.102Z,26.15
2019-05-19T18:46:47.116Z,26.62
2019-05-19T18:49:16.724Z,29.50
2019-05-19T18:51:46.215Z,28.70
2019-05-19T18:54:16.578Z,30.12
2019-05-19T18:56:46.255Z,38.83
2019-05-19T18:59:15.720Z,30.70
2019-05-19T19:01:45.335Z,29.92
2019-05-19T19:04:15.909Z,30.60
2019-05-19T19:06:45.429Z,32.60
2019-05-19T19:09:14.763Z,30.95
2019-05-19T19:11:47.783Z,32.73
2019-05-19T19:14:21.406Z,36.95
2019-05-19T19:16:52.196Z,37.48
2019-05-19T19:19:22.068Z,37.67
2019-05-19T19:21:51.772Z,37.50
2019-05-19T19:24:21.264Z,40.25
2019-05-19T19:26:50.849Z,48.68
2019-05-19T19:29:20.269Z,42.10
2019-05-19T19:31:49.677Z,39.38
2019-05-19T19:34:19.534Z,43.30
2019-05-19T19:36:51.294Z,45.00
2019-05-19T19:39:21.278Z,47.20
2019-05-19T19:41:50.672Z,44.45
2019-05-19T19:44:20.263Z,44.75
2019-05-19T19:46:53.535Z,49.73
2019-05-19T19:49:21.093Z,49.58
2019-05-19T19:51:50.426Z,48.00
2019-05-19T19:54:19.739Z,50.17
2019-05-19T19:56:49.354Z,51.25
2019-05-19T19:59:18.823Z,45.43
2019-05-19T20:01:48.412Z,45.98
2019-05-19T20:04:18.044Z,49.38
2019-05-19T20:10:03.149Z,46.65
2019-05-19T20:12:32.503Z,47.65
2019-05-19T20:15:02.260Z,45.17
2019-05-19T20:17:31.670Z,46.77
2019-05-19T20:20:01.352Z,48.42
2019-05-19T20:22:30.981Z,46.70
2019-05-19T20:25:00.666Z,49.48
2019-05-19T20:27:30.196Z,50.12
2019-05-19T20:29:59.590Z,41.92
2019-05-19T20:32:29.170Z,42.03
2019-05-19T20:34:58.495Z,47.05
2019-05-19T20:37:27.835Z,45.63
2019-05-19T20:39:57.507Z,43.48
2019-05-19T20:42:26.962Z,46.10
2019-05-19T20:44:56.632Z,46.13
2019-05-19T20:47:26.314Z,41.53
2019-05-19T20:49:55.725Z,47.60
2019-05-19T20:52:25.384Z,42.27
2019-05-19T20:54:54.782Z,48.05
2019-05-19T21:00:18.705Z,46.33
2019-05-19T21:02:48.055Z,42.10
2019-05-19T21:05:17.727Z,45.65
2019-05-19T21:07:47.323Z,40.50
2019-05-19T21:10:17.098Z,41.37
2019-05-19T21:12:46.425Z,43.42
2019-05-19T21:15:15.870Z,42.15
2019-05-19T21:17:45.201Z,41.18
2019-05-19T21:20:14.921Z,44.08
2019-05-19T21:22:44.499Z,45.23
2019-05-19T21:25:13.883Z,43.52
2019-05-19T21:27:43.307Z,46.40
2019-05-19T21:30:13.220Z,43.20
2019-05-19T21:32:42.624Z,48.10
2019-05-19T21:35:12.284Z,45.43
2019-05-19T21:37:41.634Z,46.95
2019-05-19T21:40:11.099Z,46.08
2019-05-19T21:42:40.449Z,45.00
2019-05-19T21:45:10.386Z,45.45
2019-05-19T21:47:40.069Z,44.55
2019-05-19T21:50:10.287Z,44.33
2019-05-19T21:52:39.617Z,51.92
2019-05-19T21:55:09.302Z,45.92
2019-05-19T21:57:38.988Z,44.67
2019-05-19T22:00:12.383Z,51.00
2019-05-19T22:02:43.396Z,50.38
2019-05-19T22:05:13.043Z,46.33
2019-05-19T22:07:47.307Z,47.30
2019-05-19T22:10:16.758Z,52.63
2019-05-19T22:12:46.356Z,54.65
2019-05-19T22:15:15.803Z,62.67
2019-05-19T22:17:45.142Z,50.28
2019-05-19T22:20:14.573Z,58.17
2019-05-19T22:22:44.139Z,58.13
2019-05-19T22:25:13.608Z,54.98
2019-05-19T22:27:43.185Z,65.37
2019-05-19T22:30:13.002Z,65.75
2019-05-19T22:32:42.855Z,65.30
2019-05-19T22:35:15.231Z,63.42
2019-05-19T22:37:44.553Z,62.13
2019-05-19T22:40:15.116Z,63.42
2019-05-19T22:42:44.431Z,72.67
2019-05-19T22:45:13.906Z,79.12
2019-05-19T22:47:44.308Z,66.07
2019-05-19T22:50:14.743Z,62.67
2019-05-19T22:52:44.340Z,81.80
2019-05-19T22:55:14.015Z,80.47
2019-05-19T22:57:43.596Z,82.30
2019-05-19T23:00:14.871Z,74.17
2019-05-19T23:02:46.049Z,76.85
2019-05-19T23:05:16.126Z,85.32
2019-05-19T23:07:45.438Z,82.53
2019-05-19T23:10:15.522Z,89.55
2019-05-19T23:12:45.143Z,75.30
2019-05-19T23:15:16.611Z,77.00
2019-05-19T23:17:46.008Z,78.12
2019-05-19T23:20:15.696Z,75.70
2019-05-19T23:22:45.107Z,79.65
2019-05-19T23:25:14.656Z,77.45
2019-05-19T23:27:43.995Z,79.05
2019-05-19T23:30:13.703Z,79.77
2019-05-19T23:32:43.366Z,89.77
2019-05-19T23:35:13.120Z,103.42
2019-05-19T23:37:42.712Z,98.92
2019-05-19T23:40:12.290Z,103.00
2019-05-19T23:42:41.612Z,119.95
2019-05-19T23:45:11.134Z,129.12
2019-05-19T23:47:40.752Z,129.95
2019-05-19T23:50:10.802Z,142.95
2019-05-19T23:52:40.220Z,138.35
2019-05-19T23:55:10.253Z,147.20
2019-05-19T23:57:39.971Z,141.90
